Terminal Aerodrome Forecast
Issued by NWS Tallahassee, FL

Home | Current Version | Previous Version | Text Only | Print | Product List | Glossary On
Versions: 1 2 3 4 5 6 7 8 9 10 11 12 13 14 15 16 17 18
000
FTUS42 KTAE 181742
TAFTLH
TAF
KTLH 181742Z 1818/1918 24008KT P6SM SCT025 SCT150 OVC250
     FM182000 22010KT P6SM -RA SCT010 BKN150 OVC250
     FM190000 23003KT P6SM OVC250
     FM190600 00000KT 1SM -RA BR OVC009
     FM191400 18010G20KT 3SM TSRA OVC050CB=

USA.gov is the U.S. government's official web portal to all federal, state and local government web resources and services.